Time;durP1;ratioP1;P1;durP2;ratioP2;P2;SDS_P1;SDS_P2;PMS_P1;PMS_P2;Temp;Humidity;BMP_temperature;BMP_pressure;BME280_temperature;BME280_humidity;BME280_pressure;Samples;Min_cycle;Max_cycle;Signal;HPM_P1;HPM_P2
2024/01/18 00:01:04;;;;;;;21.10;13.07;;;;;;;-2.01;100.00;99169.16;5074691;28;20040;-45
2024/01/18 00:03:32;;;;;;;22.27;13.35;;;;;;;-2.06;100.00;99179.66;5074239;28;20126;-46
2024/01/18 00:06:01;;;;;;;23.50;14.10;;;;;;;-2.08;100.00;99168.56;5072715;28;20040;-48
2024/01/18 00:08:30;;;;;;;20.63;13.02;;;;;;;-2.09;100.00;99178.94;5071137;28;20415;-49
2024/01/18 00:10:58;;;;;;;26.33;13.80;;;;;;;-2.09;100.00;99179.75;5074189;28;20471;-46
2024/01/18 00:13:27;;;;;;;21.92;13.50;;;;;;;-2.09;100.00;99184.91;5074147;28;20140;-44
2024/01/18 00:15:55;;;;;;;23.70;13.00;;;;;;;-2.10;100.00;99195.28;5074115;28;20029;-46
2024/01/18 00:18:24;;;;;;;24.98;12.93;;;;;;;-2.11;100.00;99202.19;5074280;28;20048;-45
2024/01/18 00:20:52;;;;;;;22.83;13.25;;;;;;;-2.11;100.00;99199.59;5074201;28;20040;-50
2024/01/18 00:23:22;;;;;;;22.92;13.73;;;;;;;-2.11;100.00;99202.19;5069943;28;20159;-47
2024/01/18 00:25:53;;;;;;;19.92;12.43;;;;;;;-2.13;100.00;99205.72;5071277;28;20068;-44
2024/01/18 00:28:22;;;;;;;20.17;12.65;;;;;;;-2.16;100.00;99213.56;5074027;28;20040;-48
2024/01/18 00:30:50;;;;;;;19.83;12.70;;;;;;;-2.17;100.00;99206.72;5073946;28;20044;-45
2024/01/18 00:33:18;;;;;;;20.73;12.75;;;;;;;-2.19;100.00;99216.28;5073515;28;20040;-46
2024/01/18 00:35:48;;;;;;;22.58;12.73;;;;;;;-2.19;100.00;99219.69;5073111;28;20098;-46
2024/01/18 00:38:16;;;;;;;23.23;13.55;;;;;;;-2.14;100.00;99225.50;5058174;28;20047;-45
2024/01/18 00:40:46;;;;;;;23.63;13.48;;;;;;;-2.17;100.00;99219.63;5073008;28;20041;-45
2024/01/18 00:43:14;;;;;;;23.67;13.13;;;;;;;-2.21;100.00;99219.75;5071350;28;20052;-46
2024/01/18 00:45:43;;;;;;;23.20;12.98;;;;;;;-2.23;100.00;99224.09;5069484;28;20403;-48
2024/01/18 00:48:11;;;;;;;21.83;13.35;;;;;;;-2.24;100.00;99224.97;5072011;28;20040;-46
2024/01/18 00:50:39;;;;;;;22.77;13.52;;;;;;;-2.25;100.00;99225.91;5073660;28;20424;-47
2024/01/18 00:53:08;;;;;;;22.73;13.38;;;;;;;-2.27;100.00;99227.69;5073214;28;20522;-46
2024/01/18 00:55:36;;;;;;;22.30;12.82;;;;;;;-2.30;100.00;99220.09;5073438;28;20037;-46
2024/01/18 00:58:05;;;;;;;24.17;13.77;;;;;;;-2.32;100.00;99237.31;5072031;28;20055;-47
2024/01/18 01:00:34;;;;;;;24.63;13.05;;;;;;;-2.31;100.00;99230.44;5073233;28;20040;-46
2024/01/18 01:03:02;;;;;;;22.92;14.20;;;;;;;-2.29;100.00;99241.50;5071861;28;20048;-47
2024/01/18 01:05:32;;;;;;;22.20;14.13;;;;;;;-2.33;100.00;99240.81;5073083;28;20040;-48
2024/01/18 01:08:00;;;;;;;24.83;13.43;;;;;;;-2.33;100.00;99245.09;5072950;28;20086;-48
2024/01/18 01:10:31;;;;;;;23.35;13.10;;;;;;;-2.34;100.00;99249.44;5072783;28;20047;-48
2024/01/18 01:13:00;;;;;;;21.48;14.23;;;;;;;-2.38;100.00;99253.84;5072788;28;20051;-47
2024/01/18 01:15:30;;;;;;;24.63;13.45;;;;;;;-2.40;100.00;99260.81;5073005;28;20059;-48
2024/01/18 01:17:58;;;;;;;20.40;13.75;;;;;;;-2.43;100.00;99262.63;5068415;28;20053;-49
2024/01/18 01:20:30;;;;;;;24.02;13.63;;;;;;;-2.42;100.00;99265.16;5069597;28;20067;-50
2024/01/18 01:22:58;;;;;;;22.67;14.65;;;;;;;-2.43;100.00;99265.22;5072177;28;20056;-44
2024/01/18 01:25:26;;;;;;;22.33;13.73;;;;;;;-2.45;100.00;99274.75;5072913;28;20067;-45
2024/01/18 01:27:54;;;;;;;24.55;14.80;;;;;;;-2.45;100.00;99269.59;5072968;28;20032;-49
2024/01/18 01:30:22;;;;;;;24.70;13.95;;;;;;;-2.47;100.00;99276.53;5072221;28;20137;-49
2024/01/18 01:32:52;;;;;;;23.50;13.80;;;;;;;-2.51;100.00;99264.66;5068543;28;20072;-47
2024/01/18 01:35:20;;;;;;;22.48;14.18;;;;;;;-2.51;100.00;99267.22;5068984;28;20136;-50
2024/01/18 01:37:48;;;;;;;21.15;14.63;;;;;;;-2.53;100.00;99274.19;5069947;28;20051;-50
2024/01/18 01:40:17;;;;;;;24.23;14.27;;;;;;;-2.55;100.00;99274.22;5069173;28;20049;-48
2024/01/18 01:42:45;;;;;;;23.05;14.07;;;;;;;-2.57;100.00;99284.56;5069514;28;20089;-51
2024/01/18 01:45:14;;;;;;;24.58;14.90;;;;;;;-2.58;100.00;99282.06;5068819;28;20377;-49
2024/01/18 01:47:42;;;;;;;24.83;15.13;;;;;;;-2.63;100.00;99287.38;5069886;28;20036;-46
2024/01/18 01:50:12;;;;;;;24.45;14.75;;;;;;;-2.67;100.00;99285.81;5072373;28;20044;-46
2024/01/18 01:52:43;;;;;;;28.45;14.88;;;;;;;-2.70;100.00;99293.63;5072047;28;20129;-45
2024/01/18 01:55:12;;;;;;;21.20;14.70;;;;;;;-2.73;100.00;99298.88;5072168;28;20096;-46
2024/01/18 01:57:44;;;;;;;23.67;15.38;;;;;;;-2.76;100.00;99301.56;5071338;28;20510;-46
2024/01/18 02:00:15;;;;;;;23.15;15.13;;;;;;;-2.75;100.00;99298.13;5072457;28;20384;-47
2024/01/18 02:02:43;;;;;;;20.90;12.90;;;;;;;-2.79;100.00;99304.25;5072396;28;20044;-44
2024/01/18 02:05:14;;;;;;;22.15;15.10;;;;;;;-2.81;100.00;99300.88;5072080;28;20127;-48
2024/01/18 02:07:43;;;;;;;24.42;15.55;;;;;;;-2.83;100.00;99302.69;5072083;28;20055;-45
2024/01/18 02:10:12;;;;;;;22.52;14.80;;;;;;;-2.84;100.00;99306.16;5071953;28;20403;-48
2024/01/18 02:12:42;;;;;;;23.17;14.98;;;;;;;-2.87;100.00;99299.38;5072208;28;20395;-46
2024/01/18 02:15:11;;;;;;;26.42;15.35;;;;;;;-2.90;100.00;99307.19;5071827;28;20143;-47
2024/01/18 02:17:39;;;;;;;24.33;15.57;;;;;;;-2.91;100.00;99297.78;5071787;28;20460;-45
2024/01/18 02:20:09;;;;;;;27.67;15.85;;;;;;;-2.91;100.00;99310.66;5071670;28;20086;-47
2024/01/18 02:22:43;;;;;;;30.13;17.00;;;;;;;-2.96;100.00;99312.53;5071023;28;20058;-45
2024/01/18 02:25:20;;;;;;;25.42;15.73;;;;;;;-2.96;100.00;99307.41;5068547;28;20064;-46
2024/01/18 02:27:48;;;;;;;23.88;17.35;;;;;;;-3.00;100.00;99324.69;5068602;28;20049;-48
2024/01/18 02:30:16;;;;;;;26.73;17.00;;;;;;;-3.01;100.00;99327.28;5068726;28;20577;-45
2024/01/18 02:32:45;;;;;;;28.60;18.25;;;;;;;-3.04;100.00;99322.25;5071093;28;20051;-48
2024/01/18 02:35:13;;;;;;;26.08;17.33;;;;;;;-3.06;100.00;99327.44;5071671;28;20045;-49
2024/01/18 02:37:41;;;;;;;25.90;18.23;;;;;;;-3.05;100.00;99326.56;5070417;28;20060;-48
2024/01/18 02:40:10;;;;;;;27.70;17.55;;;;;;;-3.11;100.00;99325.03;5068722;28;20057;-48
2024/01/18 02:42:40;;;;;;;25.05;17.10;;;;;;;-3.15;100.00;99320.03;5070185;28;20506;-46
2024/01/18 02:45:08;;;;;;;28.33;17.48;;;;;;;-3.19;100.00;99316.75;5071225;28;20055;-47
2024/01/18 02:47:37;;;;;;;30.98;18.42;;;;;;;-3.25;100.00;99317.75;5071475;28;20032;-46
2024/01/18 02:50:06;;;;;;;29.10;18.48;;;;;;;-3.26;100.00;99318.66;5071575;28;20043;-47
2024/01/18 02:52:34;;;;;;;30.95;19.45;;;;;;;-3.30;100.00;99314.53;5071434;28;20082;-46
2024/01/18 02:55:02;;;;;;;29.45;19.52;;;;;;;-3.34;100.00;99318.09;5071377;28;20443;-46
2024/01/18 02:57:31;;;;;;;29.58;18.63;;;;;;;-3.39;100.00;99319.94;5071067;28;20036;-46
2024/01/18 03:00:01;;;;;;;27.63;17.83;;;;;;;-3.40;100.00;99318.25;5071367;28;20056;-47
2024/01/18 03:02:30;;;;;;;30.38;17.38;;;;;;;-3.45;100.00;99312.41;5071296;28;20123;-46
2024/01/18 03:04:58;;;;;;;25.42;17.20;;;;;;;-3.52;100.00;99323.78;5071346;28;20102;-46
2024/01/18 03:07:28;;;;;;;27.25;17.27;;;;;;;-3.53;100.00;99322.09;5071069;28;20511;-45
2024/01/18 03:09:57;;;;;;;29.52;18.75;;;;;;;-3.58;100.00;99315.38;5072380;28;20512;-46
2024/01/18 03:12:25;;;;;;;26.77;16.63;;;;;;;-3.62;100.00;99318.94;5075114;28;20071;-46
2024/01/18 03:14:54;;;;;;;26.83;17.77;;;;;;;-3.67;100.00;99315.66;5075281;28;20048;-47
2024/01/18 03:17:24;;;;;;;25.25;17.02;;;;;;;-3.69;100.00;99311.50;5075308;28;20051;-46
2024/01/18 03:19:55;;;;;;;24.27;16.40;;;;;;;-3.74;100.00;99311.59;5075259;28;20045;-45
2024/01/18 03:22:23;;;;;;;26.88;16.40;;;;;;;-3.77;100.00;99322.00;5075174;28;20075;-44
2024/01/18 03:24:53;;;;;;;25.35;16.90;;;;;;;-3.81;100.00;99321.22;5075235;28;20408;-45
2024/01/18 03:27:21;;;;;;;27.35;16.83;;;;;;;-3.86;100.00;99319.69;5073975;28;20056;-45
2024/01/18 03:29:49;;;;;;;28.10;15.80;;;;;;;-3.88;100.00;99318.91;5075371;28;20044;-51
2024/01/18 03:32:17;;;;;;;26.23;16.30;;;;;;;-3.91;100.00;99324.97;5074978;28;20048;-48
2024/01/18 03:34:47;;;;;;;25.35;16.85;;;;;;;-3.94;100.00;99328.47;5075071;28;20048;-47
2024/01/18 03:37:15;;;;;;;24.75;16.40;;;;;;;-3.98;100.00;99326.88;5072015;28;20089;-46
2024/01/18 03:39:43;;;;;;;25.13;15.95;;;;;;;-4.02;100.00;99330.44;5072064;28;20087;-45
2024/01/18 03:42:12;;;;;;;26.08;14.98;;;;;;;-4.05;100.00;99333.06;5074658;28;20127;-44
2024/01/18 03:44:40;;;;;;;25.23;15.60;;;;;;;-4.04;100.00;99328.78;5074464;28;20064;-44
2024/01/18 03:47:09;;;;;;;26.60;15.80;;;;;;;-4.10;100.00;99328.09;5074475;28;20479;-45
2024/01/18 03:49:37;;;;;;;30.30;15.57;;;;;;;-4.14;100.00;99330.78;5073027;28;20530;-49
2024/01/18 03:52:08;;;;;;;21.70;14.75;;;;;;;-4.18;100.00;99339.47;5074034;28;20048;-44
2024/01/18 03:54:36;;;;;;;23.10;14.40;;;;;;;-4.21;100.00;99337.84;5074093;28;20049;-47
2024/01/18 03:57:05;;;;;;;25.48;14.48;;;;;;;-4.25;100.00;99338.81;5074119;28;20541;-46
2024/01/18 03:59:33;;;;;;;21.80;13.75;;;;;;;-4.27;100.00;99344.00;5074062;28;20767;-46
2024/01/18 04:02:01;;;;;;;20.88;13.32;;;;;;;-4.28;100.00;99347.44;5074251;28;20069;-48
2024/01/18 04:04:29;;;;;;;23.10;14.07;;;;;;;-4.29;100.00;99347.47;5074111;28;20058;-47
2024/01/18 04:06:58;;;;;;;22.30;13.35;;;;;;;-4.32;100.00;99347.53;5070859;28;20048;-44
2024/01/18 04:09:29;;;;;;;22.45;12.85;;;;;;;-4.35;100.00;99343.38;5072106;28;20392;-45
2024/01/18 04:11:58;;;;;;;20.27;12.23;;;;;;;-4.36;100.00;99341.66;5074316;28;20053;-45
2024/01/18 04:14:28;;;;;;;19.45;12.77;;;;;;;-4.36;100.00;99348.50;5074212;28;20049;-46
2024/01/18 04:16:56;;;;;;;18.98;12.43;;;;;;;-4.39;100.00;99354.59;5074136;28;20044;-46
2024/01/18 04:19:24;;;;;;;26.88;12.60;;;;;;;-4.38;100.00;99348.56;5074616;28;20478;-46
2024/01/18 04:21:54;;;;;;;21.17;12.02;;;;;;;-4.42;100.00;99355.53;5073391;28;20041;-47
2024/01/18 04:24:23;;;;;;;21.80;12.07;;;;;;;-4.46;100.00;99353.06;5074252;28;20094;-46
2024/01/18 04:26:52;;;;;;;20.02;12.18;;;;;;;-4.49;100.00;99359.13;5074141;28;20055;-47
2024/01/18 04:29:21;;;;;;;20.25;10.68;;;;;;;-4.53;100.00;99359.25;5074111;28;20408;-44
2024/01/18 04:31:49;;;;;;;23.10;12.20;;;;;;;-4.52;100.00;99364.34;5073928;28;20055;-47
2024/01/18 04:34:17;;;;;;;21.00;10.88;;;;;;;-4.48;100.00;99367.69;5073844;28;20048;-47
2024/01/18 04:36:45;;;;;;;20.45;11.63;;;;;;;-4.51;100.00;99365.16;5073884;28;20451;-48
2024/01/18 04:39:14;;;;;;;20.33;11.30;;;;;;;-4.55;100.00;99371.25;5073764;28;20048;-47
2024/01/18 04:41:42;;;;;;;20.50;12.05;;;;;;;-4.58;100.00;99377.34;5073801;28;20072;-47
2024/01/18 04:44:13;;;;;;;19.20;11.65;;;;;;;-4.63;100.00;99385.16;5073796;28;20780;-45
2024/01/18 04:46:44;;;;;;;18.02;11.20;;;;;;;-4.66;100.00;99389.50;5073496;28;20045;-47
2024/01/18 04:49:12;;;;;;;18.80;10.98;;;;;;;-4.70;100.00;99388.75;5073411;28;20441;-47
2024/01/18 04:51:40;;;;;;;18.42;11.73;;;;;;;-4.71;100.00;99391.38;5072156;28;20472;-45
2024/01/18 04:54:09;;;;;;;18.95;11.50;;;;;;;-4.72;100.00;99394.81;5073410;28;20056;-45
2024/01/18 04:56:37;;;;;;;21.05;11.70;;;;;;;-4.72;100.00;99387.13;5073319;28;20059;-46
2024/01/18 04:59:08;;;;;;;20.35;12.25;;;;;;;-4.74;100.00;99392.28;5073220;28;20040;-46
2024/01/18 05:01:40;;;;;;;22.80;11.52;;;;;;;-4.76;100.00;99392.34;5072025;28;20496;-45
2024/01/18 05:04:08;;;;;;;23.88;11.68;;;;;;;-4.77;100.00;99400.91;5073343;28;20063;-46
2024/01/18 05:06:36;;;;;;;22.17;12.38;;;;;;;-4.78;100.00;99398.38;5071399;28;20060;-46
2024/01/18 05:09:05;;;;;;;22.38;12.65;;;;;;;-4.81;100.00;99406.16;5072687;28;20040;-46
2024/01/18 05:11:33;;;;;;;22.58;13.25;;;;;;;-4.85;100.00;99409.66;5072773;28;20052;-49
2024/01/18 05:14:02;;;;;;;25.38;13.55;;;;;;;-4.87;100.00;99416.56;5073148;28;20044;-50
2024/01/18 05:16:32;;;;;;;23.90;13.20;;;;;;;-4.90;100.00;99412.34;5073069;28;20040;-49
2024/01/18 05:19:02;;;;;;;25.05;12.55;;;;;;;-4.93;100.00;99417.56;5072659;28;20106;-45
2024/01/18 05:21:30;;;;;;;25.25;11.70;;;;;;;-4.93;100.00;99413.25;5072673;28;20082;-46
2024/01/18 05:24:02;;;;;;;20.50;12.23;;;;;;;-4.95;100.00;99416.75;5069644;28;20075;-47
2024/01/18 05:26:30;;;;;;;23.38;11.30;;;;;;;-5.00;100.00;99421.16;5070216;28;20053;-47
2024/01/18 05:28:58;;;;;;;20.63;11.48;;;;;;;-5.02;100.00;99420.34;5073217;28;20491;-45
2024/01/18 05:31:27;;;;;;;23.08;10.88;;;;;;;-5.03;100.00;99427.19;5072704;28;20048;-46
2024/01/18 05:33:56;;;;;;;22.33;11.13;;;;;;;-5.06;100.00;99442.63;5072918;28;20447;-45
2024/01/18 05:36:27;;;;;;;18.63;10.68;;;;;;;-5.09;100.00;99438.41;5072777;28;20047;-47
2024/01/18 05:38:55;;;;;;;18.52;10.07;;;;;;;-5.11;100.00;99445.31;5071254;28;20098;-47
2024/01/18 05:41:23;;;;;;;18.67;11.10;;;;;;;-5.13;100.00;99447.06;5072760;28;20044;-45
2024/01/18 05:43:52;;;;;;;20.17;10.88;;;;;;;-5.12;100.00;99455.63;5072581;28;20055;-45
2024/01/18 05:46:22;;;;;;;19.30;9.80;;;;;;;-5.12;100.00;99455.63;5072469;28;20052;-46
2024/01/18 05:48:51;;;;;;;18.58;11.07;;;;;;;-5.15;100.00;99453.97;5072413;28;20036;-45
2024/01/18 05:51:19;;;;;;;21.58;10.32;;;;;;;-5.18;100.00;99466.00;5072799;28;20037;-45
2024/01/18 05:53:49;;;;;;;20.48;10.85;;;;;;;-5.19;100.00;99467.72;5072497;28;20480;-44
2024/01/18 05:56:17;;;;;;;19.27;11.57;;;;;;;-5.21;100.00;99463.50;5072323;28;20074;-48
2024/01/18 05:58:45;;;;;;;18.23;10.18;;;;;;;-5.25;100.00;99470.41;5072168;28;20040;-47
2024/01/18 06:01:15;;;;;;;16.65;10.63;;;;;;;-5.26;100.00;99467.03;5071948;28;20404;-49
2024/01/18 06:03:44;;;;;;;19.27;10.38;;;;;;;-5.28;100.00;99476.47;5068624;28;20060;-48
2024/01/18 06:06:12;;;;;;;22.10;11.27;;;;;;;-5.32;100.00;99474.81;5068811;28;20135;-52
2024/01/18 06:08:40;;;;;;;18.95;10.73;;;;;;;-5.35;100.00;99480.03;5068816;28;20052;-49
2024/01/18 06:11:10;;;;;;;18.23;10.98;;;;;;;-5.36;100.00;99482.63;5068668;28;20131;-52
2024/01/18 06:13:39;;;;;;;18.88;10.90;;;;;;;-5.40;100.00;99484.41;5071291;28;20400;-46
2024/01/18 06:16:10;;;;;;;17.15;10.90;;;;;;;-5.40;100.00;99478.44;5071629;28;20056;-47
2024/01/18 06:18:42;;;;;;;19.50;10.73;;;;;;;-5.44;100.00;99487.91;5071843;28;20391;-45
2024/01/18 06:21:11;;;;;;;20.02;11.15;;;;;;;-5.49;100.00;99502.56;5071744;28;20425;-45
2024/01/18 06:23:42;;;;;;;20.60;10.88;;;;;;;-5.50;100.00;99503.44;5071635;28;20048;-45
2024/01/18 06:26:12;;;;;;;18.67;11.27;;;;;;;-5.52;100.00;99506.03;5071696;28;20068;-46
2024/01/18 06:28:41;;;;;;;20.70;11.00;;;;;;;-5.53;100.00;99512.03;5071697;28;20059;-44
2024/01/18 06:31:09;;;;;;;20.00;10.63;;;;;;;-5.55;100.00;99510.38;5070017;28;20135;-49
2024/01/18 06:33:37;;;;;;;20.30;11.63;;;;;;;-5.56;100.00;99516.34;5071466;28;20797;-48
2024/01/18 06:36:08;;;;;;;18.70;10.55;;;;;;;-5.59;100.00;99527.50;5071543;28;20429;-46
2024/01/18 06:38:36;;;;;;;16.52;9.85;;;;;;;-5.62;100.00;99536.13;5071166;28;20090;-47
2024/01/18 06:41:11;;;;;;;20.60;10.70;;;;;;;-5.63;100.00;99536.13;5070394;28;20101;-49
2024/01/18 06:43:41;;;;;;;20.42;11.90;;;;;;;-5.64;100.00;99537.84;5071115;28;20406;-49
2024/01/18 06:46:15;;;;;;;20.92;11.15;;;;;;;-5.65;100.00;99543.84;5071529;28;20048;-46
2024/01/18 06:48:45;;;;;;;19.73;11.70;;;;;;;-5.65;100.00;99545.56;5071415;28;20098;-46
2024/01/18 06:51:14;;;;;;;20.27;12.30;;;;;;;-5.64;100.00;99549.84;5071691;28;20049;-48
2024/01/18 06:53:42;;;;;;;23.33;12.48;;;;;;;-5.65;100.00;99548.13;5071643;28;20053;-46
2024/01/18 06:56:14;;;;;;;23.25;12.23;;;;;;;-5.68;100.00;99551.59;5071373;28;20048;-47
2024/01/18 06:58:44;;;;;;;;;;;;;;;-5.71;100.00;99546.53;5071580;28;20052;-46
2024/01/18 07:01:13;;;;;;;21.25;12.85;;;;;;;-5.69;100.00;99547.34;5071273;28;19950;-46
2024/01/18 07:03:42;;;;;;;24.27;13.65;;;;;;;-5.70;100.00;99548.25;5071332;28;20036;-46
2024/01/18 07:06:11;;;;;;;21.75;12.70;;;;;;;-5.70;100.00;99562.75;5071832;28;20055;-46
2024/01/18 07:08:41;;;;;;;19.45;12.27;;;;;;;-5.72;100.00;99559.38;5071074;28;20056;-45
2024/01/18 07:11:09;;;;;;;22.02;13.95;;;;;;;-5.72;100.00;99570.47;5071371;28;20127;-45
2024/01/18 07:13:38;;;;;;;24.95;12.60;;;;;;;-5.74;100.00;99567.06;5071229;28;20468;-46
2024/01/18 07:16:09;;;;;;;25.98;14.27;;;;;;;-5.76;100.00;99568.84;5067812;28;20412;-45
2024/01/18 07:18:37;;;;;;;27.60;14.90;;;;;;;-5.78;100.00;99576.53;5068355;28;20140;-47
2024/01/18 07:21:08;;;;;;;27.60;15.83;;;;;;;-5.77;100.00;99577.38;5071339;28;20474;-46
2024/01/18 07:23:37;;;;;;;29.65;15.65;;;;;;;-5.78;100.00;99583.38;5071189;28;20048;-48
2024/01/18 07:26:05;;;;;;;26.02;14.35;;;;;;;-5.79;100.00;99591.94;5070808;28;20174;-46
2024/01/18 07:28:34;;;;;;;26.88;14.57;;;;;;;-5.79;100.00;99597.06;5070702;28;20067;-46
2024/01/18 07:31:03;;;;;;;25.17;13.20;;;;;;;-5.81;100.00;99602.22;5071195;28;20040;-47
2024/01/18 07:33:37;;;;;;;25.65;14.02;;;;;;;-5.83;100.00;99603.13;5071306;28;20441;-47
2024/01/18 07:36:06;;;;;;;23.98;13.20;;;;;;;-5.83;100.00;99603.13;5071320;28;20044;-47
2024/01/18 07:38:35;;;;;;;26.73;12.52;;;;;;;-5.85;100.00;99597.16;5069683;28;20079;-48
2024/01/18 07:41:03;;;;;;;21.70;11.98;;;;;;;-5.87;100.00;99604.03;5069496;28;20076;-50
2024/01/18 07:43:34;;;;;;;22.02;12.00;;;;;;;-5.89;100.00;99604.09;5070863;28;20119;-51
2024/01/18 07:46:02;;;;;;;20.27;11.02;;;;;;;-5.92;100.00;99611.78;5070778;28;20503;-46
2024/01/18 07:48:31;;;;;;;21.58;10.88;;;;;;;-5.92;100.00;99616.06;5069387;28;20139;-46
2024/01/18 07:51:03;;;;;;;20.00;11.18;;;;;;;-5.92;100.00;99618.63;5070917;28;20159;-46
2024/01/18 07:53:32;;;;;;;21.40;12.52;;;;;;;-5.93;100.00;99612.69;5070958;28;20044;-48
2024/01/18 07:56:00;;;;;;;19.25;11.15;;;;;;;-5.91;100.00;99615.22;5071532;28;20113;-47
2024/01/18 07:58:28;;;;;;;23.70;13.50;;;;;;;-5.92;100.00;99616.91;5074539;28;20094;-47
2024/01/18 08:00:57;;;;;;;25.98;12.77;;;;;;;-5.91;100.00;99622.91;5074584;28;20119;-53
2024/01/18 08:03:27;;;;;;;22.85;12.70;;;;;;;-5.90;100.00;99629.69;5071566;28;20040;-49
2024/01/18 08:05:55;;;;;;;24.85;13.48;;;;;;;-5.90;100.00;99633.13;5070936;28;20114;-50
2024/01/18 08:08:26;;;;;;;24.63;14.25;;;;;;;-5.88;100.00;99641.59;5071460;28;20427;-49
2024/01/18 08:10:54;;;;;;;19.77;12.43;;;;;;;-5.86;100.00;99649.25;5073213;28;20086;-52
2024/01/18 08:13:23;;;;;;;22.65;13.02;;;;;;;-5.84;100.00;99657.78;5070431;28;20499;-51
2024/01/18 08:15:51;;;;;;;24.00;13.45;;;;;;;-5.83;100.00;99656.91;5070423;28;20054;-49
2024/01/18 08:18:19;;;;;;;25.92;14.02;;;;;;;-5.76;100.00;99668.72;5073324;28;20076;-50
2024/01/18 08:20:48;;;;;;;24.58;13.20;;;;;;;-5.71;100.00;99664.38;5072822;28;20508;-50
2024/01/18 08:23:16;;;;;;;23.15;13.13;;;;;;;-5.53;100.00;99668.34;5073228;28;20043;-48
2024/01/18 08:25:46;;;;;;;23.65;14.38;;;;;;;-5.26;100.00;99668.72;5071234;28;20454;-50
2024/01/18 08:28:18;;;;;;;22.67;13.55;;;;;;;-5.06;100.00;99675.16;5069036;28;20129;-53
2024/01/18 08:30:46;;;;;;;25.90;14.00;;;;;;;-4.89;100.00;99673.09;5070627;28;20053;-50
2024/01/18 08:33:14;;;;;;;22.40;13.15;;;;;;;-4.74;100.00;99682.22;5069547;28;20048;-53
2024/01/18 08:35:42;;;;;;;21.55;14.52;;;;;;;-4.44;100.00;99682.44;5070875;28;20123;-49
2024/01/18 08:38:11;;;;;;;20.73;13.52;;;;;;;-4.28;100.00;99694.03;5072689;28;20055;-48
2024/01/18 08:40:39;;;;;;;23.95;14.10;;;;;;;-4.03;100.00;99700.34;5070376;28;20039;-48
2024/01/18 08:43:08;;;;;;;20.88;11.90;;;;;;;-3.73;100.00;99698.75;5070085;28;20059;-52
2024/01/18 08:45:38;;;;;;;22.83;13.55;;;;;;;-3.64;100.00;99710.53;5070517;28;20802;-50
2024/01/18 08:48:07;;;;;;;21.35;12.48;;;;;;;-3.38;100.00;99711.59;5070345;28;20033;-51
2024/01/18 08:50:35;;;;;;;25.85;12.30;;;;;;;-3.20;100.00;99720.56;5069187;28;20140;-52
2024/01/18 08:53:04;;;;;;;24.52;14.00;;;;;;;-2.98;100.00;99721.69;5072103;28;20046;-52
2024/01/18 08:55:32;;;;;;;27.95;14.98;;;;;;;-3.06;100.00;99718.47;5073692;28;20060;-53
2024/01/18 08:58:00;;;;;;;27.25;15.13;;;;;;;-2.77;100.00;99715.13;5070673;28;20388;-52
2024/01/18 09:00:30;;;;;;;27.35;15.02;;;;;;;-2.58;100.00;99715.44;5069972;28;20041;-49
2024/01/18 09:02:58;;;;;;;23.73;13.15;;;;;;;-2.45;100.00;99725.38;5072390;28;20056;-52
2024/01/18 09:05:27;;;;;;;33.72;13.25;;;;;;;-2.29;100.00;99724.03;5069997;28;20090;-49
2024/01/18 09:07:55;;;;;;;20.75;11.45;;;;;;;-2.12;100.00;99738.97;5070032;28;20444;-52
2024/01/18 09:10:23;;;;;;;18.92;12.23;;;;;;;-2.09;100.00;99738.03;5070241;28;20124;-50
2024/01/18 09:12:54;;;;;;;18.13;10.50;;;;;;;-2.06;100.00;99743.09;5072234;28;20094;-50
2024/01/18 09:15:24;;;;;;;17.27;9.90;;;;;;;-2.01;100.00;99740.38;5069860;28;20131;-49
2024/01/18 09:17:54;;;;;;;16.80;9.20;;;;;;;-2.11;100.00;99738.09;5069105;28;20060;-48
2024/01/18 09:20:22;;;;;;;16.20;9.20;;;;;;;-2.14;100.00;99739.91;5068433;28;20072;-49
2024/01/18 09:22:51;;;;;;;15.35;7.25;;;;;;;-2.04;100.00;99749.03;5070064;28;20056;-50
2024/01/18 09:25:36;;;;;;;13.15;7.55;;;;;;;-2.06;100.00;99753.38;5070459;28;20072;-51
2024/01/18 09:28:05;;;;;;;14.32;7.88;;;;;;;-2.01;100.00;99759.25;5070360;28;20044;-51
2024/01/18 09:30:33;;;;;;;16.20;7.93;;;;;;;-1.94;100.00;99757.34;5071556;28;20040;-51
2024/01/18 09:33:03;;;;;;;14.82;7.97;;;;;;;-1.83;100.00;99768.16;5069090;28;20040;-48
2024/01/18 09:35:31;;;;;;;15.77;8.10;;;;;;;-1.70;100.00;99766.88;5069651;28;20050;-49
2024/01/18 09:38:00;;;;;;;22.10;8.80;;;;;;;-1.53;100.00;99780.97;5069662;28;20078;-49
2024/01/18 09:40:28;;;;;;;14.32;7.70;;;;;;;-1.25;100.00;99785.25;5072788;28;20048;-52
2024/01/18 09:42:59;;;;;;;14.65;7.07;;;;;;;-0.75;100.00;99793.00;5070849;28;20048;-49
2024/01/18 09:45:32;;;;;;;14.02;7.13;;;;;;;-0.37;100.00;99795.09;5068614;28;20060;-51
2024/01/18 09:48:04;;;;;;;14.95;7.20;;;;;;;-0.16;100.00;99803.81;5068856;28;20139;-49
2024/01/18 09:50:33;;;;;;;11.13;6.18;;;;;;;0.17;100.00;99816.34;5069165;28;20063;-53
2024/01/18 09:53:02;;;;;;;11.40;6.47;;;;;;;0.23;100.00;99817.84;5068744;28;20041;-52
2024/01/18 09:55:30;;;;;;;12.73;6.32;;;;;;;0.21;100.00;99814.50;5068571;28;20544;-51
2024/01/18 09:58:00;;;;;;;10.57;6.03;;;;;;;0.50;100.00;99823.69;5070660;28;20044;-49
2024/01/18 10:00:32;;;;;;;13.57;5.28;;;;;;;0.50;100.00;99836.63;5068787;28;20543;-50
2024/01/18 10:03:02;;;;;;;11.00;5.07;;;;;;;0.62;100.00;99843.06;5066989;28;20155;-50
2024/01/18 10:05:30;;;;;;;10.98;5.28;;;;;;;0.84;100.00;99845.63;5070658;28;20478;-51
2024/01/18 10:07:59;;;;;;;10.40;4.65;;;;;;;1.06;100.00;99855.94;5068770;28;20056;-52
2024/01/18 10:10:31;;;;;;;10.52;4.68;;;;;;;1.37;100.00;99859.84;5068423;28;20506;-50
2024/01/18 10:12:59;;;;;;;9.70;4.57;;;;;;;1.71;100.00;99848.00;5071251;28;20037;-51
2024/01/18 10:15:32;;;;;;;15.02;4.93;;;;;;;1.88;100.00;99864.56;5067318;28;20080;-49
2024/01/18 10:18:04;;;;;;;9.52;4.10;;;;;;;2.17;100.00;99865.84;5067915;28;20120;-51
2024/01/18 10:20:33;;;;;;;10.60;4.70;;;;;;;2.29;100.00;99869.63;5069312;28;20436;-52
2024/01/18 10:23:01;;;;;;;12.68;4.90;;;;;;;2.17;100.00;99874.47;5071891;28;20055;-49
2024/01/18 10:25:32;;;;;;;10.95;4.82;;;;;;;2.00;100.00;99882.16;5071972;28;20057;-51
2024/01/18 10:28:01;;;;;;;10.90;4.60;;;;;;;1.79;100.00;99882.22;5071600;28;20040;-52
2024/01/18 10:30:31;;;;;;;10.60;4.60;;;;;;;1.66;100.00;99887.09;5071539;28;20094;-49
2024/01/18 10:33:02;;;;;;;10.75;4.30;;;;;;;1.34;100.00;99896.25;5071669;28;20044;-51
2024/01/18 10:35:30;;;;;;;10.50;4.28;;;;;;;1.17;100.00;99902.13;5070135;28;20045;-50
2024/01/18 10:38:03;;;;;;;9.27;4.57;;;;;;;1.07;100.00;99898.22;5068393;28;20052;-50
2024/01/18 10:40:34;;;;;;;11.32;4.80;;;;;;;0.97;100.00;99903.78;5070964;28;20051;-50
2024/01/18 10:43:03;;;;;;;12.55;5.88;;;;;;;0.92;100.00;99910.06;5071755;28;20139;-53
2024/01/18 10:45:33;;;;;;;14.35;7.10;;;;;;;0.83;100.00;99911.25;5070070;28;20067;-53
2024/01/18 10:48:04;;;;;;;13.02;6.60;;;;;;;0.79;100.00;99914.84;5068055;28;20056;-50
2024/01/18 10:50:33;;;;;;;16.00;7.70;;;;;;;0.78;100.00;99906.25;5067188;28;20055;-51
2024/01/18 10:53:02;;;;;;;11.60;5.80;;;;;;;0.76;100.00;99910.63;5070973;28;20032;-49
2024/01/18 10:55:30;;;;;;;14.18;5.68;;;;;;;0.75;100.00;99914.16;5070162;28;20392;-51
2024/01/18 10:57:59;;;;;;;20.33;7.43;;;;;;;0.63;100.00;99915.47;5067715;28;20056;-53
2024/01/18 11:00:27;;;;;;;10.38;5.18;;;;;;;0.66;100.00;99911.91;5067723;28;20059;-49
2024/01/18 11:02:57;;;;;;;11.27;4.95;;;;;;;0.66;100.00;99915.34;5067251;28;20131;-49
2024/01/18 11:05:28;;;;;;;10.18;3.67;;;;;;;0.72;100.00;99919.44;5070186;28;20420;-50
2024/01/18 11:07:58;;;;;;;7.40;2.78;;;;;;;0.80;100.00;99927.75;5067849;28;20744;-51
2024/01/18 11:10:26;;;;;;;5.40;1.90;;;;;;;0.80;100.00;99929.50;5069333;28;20131;-49
2024/01/18 11:12:54;;;;;;;8.20;2.20;;;;;;;0.83;100.00;99929.38;5067767;28;20059;-53
2024/01/18 11:15:23;;;;;;;8.65;2.28;;;;;;;0.87;100.00;99940.44;5067971;28;20052;-50
2024/01/18 11:17:51;;;;;;;5.78;2.53;;;;;;;0.91;100.00;99937.66;5067316;28;20040;-51
2024/01/18 11:20:20;;;;;;;7.88;3.10;;;;;;;0.92;100.00;99935.94;5067750;28;20414;-53